Time;durP1;ratioP1;P1;durP2;ratioP2;P2;SDS_P1;SDS_P2;PMS_P1;PMS_P2;Temp;Humidity;BMP_temperature;BMP_pressure;BME280_temperature;BME280_humidity;BME280_pressure;Samples;Min_cycle;Max_cycle;Signal;HPM_P1;HPM_P2
2023/02/17 00:01:34;;;;;;;14.18;6.70;;;;;;;;;;4951525;28;20077;-71
2023/02/17 00:04:01;;;;;;;14.43;7.40;;;;;;;;;;4935024;28;20069;-68
2023/02/17 00:06:28;;;;;;;13.88;7.03;;;;;;;;;;4942364;28;20058;-69
2023/02/17 00:08:55;;;;;;;14.80;7.32;;;;;;;;;;4949589;28;20072;-71
2023/02/17 00:11:23;;;;;;;14.15;7.22;;;;;;;;;;4951782;28;20078;-68
2023/02/17 00:13:51;;;;;;;12.40;6.25;;;;;;;;;;4948868;28;20059;-66
2023/02/17 00:16:23;;;;;;;14.13;6.80;;;;;;;;;;4955340;28;20260;-68
2023/02/17 00:18:55;;;;;;;13.30;7.03;;;;;;;;;;4959778;28;20058;-68
2023/02/17 00:21:23;;;;;;;14.63;6.85;;;;;;;;;;4948591;28;20070;-71
2023/02/17 00:23:52;;;;;;;17.47;7.27;;;;;;;;;;4955260;28;20057;-73
2023/02/17 00:26:19;;;;;;;16.83;7.13;;;;;;;;;;4920036;28;20061;-72
2023/02/17 00:28:45;;;;;;;14.70;7.20;;;;;;;;;;4970890;28;20066;-73
2023/02/17 00:31:14;;;;;;;13.75;7.05;;;;;;;;;;4952617;28;20215;-70
2023/02/17 00:33:42;;;;;;;14.68;7.25;;;;;;;;;;4951505;28;20077;-70
2023/02/17 00:36:13;;;;;;;13.88;7.32;;;;;;;;;;4898910;28;20055;-70
2023/02/17 00:38:39;;;;;;;17.20;7.53;;;;;;;;;;4947522;28;20062;-73
2023/02/17 00:41:06;;;;;;;14.60;6.93;;;;;;;;;;4956834;28;20050;-69
2023/02/17 00:43:32;;;;;;;14.43;7.32;;;;;;;;;;4934631;28;20064;-68
2023/02/17 00:45:59;;;;;;;14.57;7.18;;;;;;;;;;4944024;28;20081;-71
2023/02/17 00:48:26;;;;;;;15.00;7.18;;;;;;;;;;4957770;28;20058;-69
2023/02/17 00:50:54;;;;;;;12.68;7.13;;;;;;;;;;4956502;28;20050;-71
2023/02/17 00:53:20;;;;;;;16.00;7.00;;;;;;;;;;4971939;28;20050;-66
2023/02/17 00:55:47;;;;;;;14.98;7.32;;;;;;;;;;4954975;28;20046;-68
2023/02/17 00:58:14;;;;;;;14.02;7.28;;;;;;;;;;4962947;28;20057;-66
2023/02/17 01:00:40;;;;;;;14.05;7.40;;;;;;;;;;4950364;28;20050;-70
2023/02/17 01:03:07;;;;;;;13.18;6.70;;;;;;;;;;4949156;28;20348;-70
2023/02/17 01:05:34;;;;;;;15.05;7.50;;;;;;;;;;4954341;28;20116;-67
2023/02/17 01:08:02;;;;;;;15.65;7.53;;;;;;;;;;4971082;28;20065;-70
2023/02/17 01:10:33;;;;;;;15.18;7.43;;;;;;;;;;4948896;28;20062;-65
2023/02/17 01:13:03;;;;;;;13.27;7.25;;;;;;;;;;4939571;28;20068;-68
2023/02/17 01:15:29;;;;;;;13.15;6.78;;;;;;;;;;4906392;28;20069;-69
2023/02/17 01:17:56;;;;;;;15.82;7.80;;;;;;;;;;4955208;28;20049;-66
2023/02/17 01:20:22;;;;;;;14.27;7.47;;;;;;;;;;4956710;28;20051;-75
2023/02/17 01:22:49;;;;;;;13.48;6.85;;;;;;;;;;4951189;28;20079;-73
2023/02/17 01:25:24;;;;;;;14.20;6.63;;;;;;;;;;4960482;28;20054;-69
2023/02/17 01:27:51;;;;;;;12.98;6.53;;;;;;;;;;4971239;28;20061;-70
2023/02/17 01:30:17;;;;;;;15.52;7.47;;;;;;;;;;4980953;28;20050;-69
2023/02/17 01:32:44;;;;;;;14.15;6.70;;;;;;;;;;4964758;28;20082;-70
2023/02/17 01:35:10;;;;;;;14.80;6.88;;;;;;;;;;4890963;28;20066;-70
2023/02/17 01:37:37;;;;;;;12.32;6.22;;;;;;;;;;4932274;28;20051;-68
2023/02/17 01:40:04;;;;;;;14.52;7.13;;;;;;;;;;4944896;28;20105;-69
2023/02/17 01:42:34;;;;;;;13.63;6.97;;;;;;;;;;4957719;28;20128;-70
2023/02/17 01:45:19;;;;;;;11.95;6.93;;;;;;;;;;4971679;28;20061;-66
2023/02/17 01:47:48;;;;;;;16.35;7.07;;;;;;;;;;4954720;28;21480;-68
2023/02/17 01:50:15;;;;;;;14.02;6.85;;;;;;;;;;4949320;28;20112;-67
2023/02/17 01:52:45;;;;;;;16.92;6.90;;;;;;;;;;4965998;28;20060;-68
2023/02/17 01:55:14;;;;;;;15.68;7.30;;;;;;;;;;4950364;28;20076;-72
2023/02/17 01:57:46;;;;;;;15.60;7.18;;;;;;;;;;4956458;28;20057;-67
2023/02/17 02:00:18;;;;;;;14.25;6.97;;;;;;;;;;4940916;28;20047;-70
2023/02/17 02:02:45;;;;;;;12.38;6.22;;;;;;;;;;4960488;28;20054;-72
2023/02/17 02:05:13;;;;;;;14.98;7.25;;;;;;;;;;4935311;28;20165;-70
2023/02/17 02:07:41;;;;;;;16.13;7.75;;;;;;;;;;4946653;28;20108;-71
2023/02/17 02:10:08;;;;;;;18.88;8.60;;;;;;;;;;4945965;28;20060;-71
2023/02/17 02:12:37;;;;;;;14.48;7.22;;;;;;;;;;4955107;28;20089;-67
2023/02/17 02:15:06;;;;;;;16.10;7.10;;;;;;;;;;4947863;28;20058;-67
2023/02/17 02:17:37;;;;;;;15.52;7.28;;;;;;;;;;4944406;28;20125;-70
2023/02/17 02:20:21;;;;;;;17.05;8.10;;;;;;;;;;4949388;28;20054;-67
2023/02/17 02:23:08;;;;;;;16.80;8.18;;;;;;;;;;4953378;28;20058;-68
2023/02/17 02:25:47;;;;;;;18.10;8.10;;;;;;;;;;4924484;28;20089;-68
2023/02/17 02:28:20;;;;;;;17.27;8.00;;;;;;;;;;4961818;28;20073;-67
2023/02/17 02:30:55;;;;;;;21.25;8.60;;;;;;;;;;4956976;28;20050;-68
2023/02/17 02:33:30;;;;;;;16.60;7.90;;;;;;;;;;4966538;28;20061;-66
2023/02/17 02:35:58;;;;;;;19.08;8.38;;;;;;;;;;4972673;28;20054;-67
2023/02/17 02:38:28;;;;;;;18.45;8.20;;;;;;;;;;4961891;28;20074;-70
2023/02/17 02:40:57;;;;;;;18.10;8.70;;;;;;;;;;4893795;28;20126;-73
2023/02/17 02:43:24;;;;;;;17.95;8.15;;;;;;;;;;4956659;28;20165;-67
2023/02/17 02:45:51;;;;;;;19.55;8.80;;;;;;;;;;4919777;28;20145;-72
2023/02/17 02:48:18;;;;;;;21.15;8.50;;;;;;;;;;4968602;28;20077;-71
2023/02/17 02:50:55;;;;;;;18.92;8.55;;;;;;;;;;4934530;28;20054;-71
2023/02/17 02:53:43;;;;;;;21.23;9.18;;;;;;;;;;4940923;28;20069;-70
2023/02/17 02:56:13;;;;;;;20.33;8.50;;;;;;;;;;4967710;28;20128;-68
2023/02/17 02:58:47;;;;;;;20.33;8.35;;;;;;;;;;4937315;28;20066;-71
2023/02/17 03:01:19;;;;;;;19.50;9.40;;;;;;;;;;4957140;28;20051;-68
2023/02/17 03:03:52;;;;;;;16.85;8.45;;;;;;;;;;4836754;28;20059;-71
2023/02/17 03:06:22;;;;;;;18.27;8.32;;;;;;;;;;4847780;29;20055;-68
2023/02/17 03:08:51;;;;;;;18.95;8.27;;;;;;;;;;4892120;29;20051;-68
2023/02/17 03:11:31;;;;;;;21.10;8.82;;;;;;;;;;4891411;28;20102;-68
2023/02/17 03:14:03;;;;;;;19.35;8.77;;;;;;;;;;4843603;29;20135;-73
2023/02/17 03:16:29;;;;;;;17.15;8.63;;;;;;;;;;4872905;29;20431;-67
2023/02/17 03:18:56;;;;;;;18.70;8.70;;;;;;;;;;4882679;29;20138;-71
2023/02/17 03:21:25;;;;;;;17.63;8.40;;;;;;;;;;4970098;28;20051;-71
2023/02/17 03:23:54;;;;;;;18.42;8.63;;;;;;;;;;4953779;28;20046;-70
2023/02/17 03:26:23;;;;;;;19.02;8.13;;;;;;;;;;4967851;28;20062;-67
2023/02/17 03:28:49;;;;;;;19.75;8.90;;;;;;;;;;4955926;28;20090;-67
2023/02/17 03:31:16;;;;;;;19.40;8.43;;;;;;;;;;4972374;28;20062;-69
2023/02/17 03:33:42;;;;;;;18.88;8.80;;;;;;;;;;4927104;28;20061;-69
2023/02/17 03:36:09;;;;;;;15.85;7.97;;;;;;;;;;4927809;28;20176;-69
2023/02/17 03:38:37;;;;;;;17.70;8.35;;;;;;;;;;4972343;28;20050;-70
2023/02/17 03:41:04;;;;;;;19.10;8.57;;;;;;;;;;4953136;28;20146;-72
2023/02/17 03:43:32;;;;;;;20.13;8.15;;;;;;;;;;4922452;28;20064;-68
2023/02/17 03:45:59;;;;;;;19.80;8.57;;;;;;;;;;4911938;28;20080;-68
2023/02/17 03:48:28;;;;;;;20.48;9.32;;;;;;;;;;4971111;28;20054;-67
2023/02/17 03:50:54;;;;;;;17.63;8.50;;;;;;;;;;4941231;28;20146;-70
2023/02/17 03:53:21;;;;;;;17.52;7.45;;;;;;;;;;4954210;28;20050;-67
2023/02/17 03:55:49;;;;;;;16.77;7.75;;;;;;;;;;4943211;28;20060;-67
2023/02/17 03:58:15;;;;;;;21.75;8.70;;;;;;;;;;4947754;28;20080;-70
2023/02/17 04:00:42;;;;;;;19.08;8.00;;;;;;;;;;4956243;28;20069;-70
2023/02/17 04:03:11;;;;;;;18.42;8.63;;;;;;;;;;4943014;28;20168;-68
2023/02/17 04:05:38;;;;;;;19.60;7.63;;;;;;;;;;4957812;28;20142;-75
2023/02/17 04:08:08;;;;;;;19.48;8.05;;;;;;;;;;4947568;28;20055;-75
2023/02/17 04:10:37;;;;;;;19.42;7.47;;;;;;;;;;4885294;29;20070;-66
2023/02/17 04:13:06;;;;;;;14.65;7.22;;;;;;;;;;4939761;28;20054;-67
2023/02/17 04:15:35;;;;;;;16.65;8.07;;;;;;;;;;4947321;28;20152;-72
2023/02/17 04:18:01;;;;;;;16.63;7.75;;;;;;;;;;4968285;28;20070;-68
2023/02/17 04:20:28;;;;;;;17.95;7.68;;;;;;;;;;4973505;28;20060;-71
2023/02/17 04:22:54;;;;;;;16.60;7.40;;;;;;;;;;4957204;28;20135;-69
2023/02/17 04:25:22;;;;;;;17.15;7.55;;;;;;;;;;4967509;28;20114;-71
2023/02/17 04:27:50;;;;;;;17.38;7.18;;;;;;;;;;4933350;28;20085;-73
2023/02/17 04:30:18;;;;;;;16.25;7.82;;;;;;;;;;4956735;28;20104;-70
2023/02/17 04:32:45;;;;;;;16.73;7.45;;;;;;;;;;4941003;28;20057;-71
2023/02/17 04:35:11;;;;;;;17.33;7.43;;;;;;;;;;4914605;28;20054;-69
2023/02/17 04:37:38;;;;;;;16.52;6.95;;;;;;;;;;4956352;28;20076;-67
2023/02/17 04:40:09;;;;;;;16.20;7.10;;;;;;;;;;4913321;28;20060;-70
2023/02/17 04:42:35;;;;;;;18.10;7.10;;;;;;;;;;4907734;28;20046;-69
2023/02/17 04:45:02;;;;;;;17.30;7.38;;;;;;;;;;4904744;28;20051;-68
2023/02/17 04:47:33;;;;;;;16.85;6.90;;;;;;;;;;4949836;28;20050;-70
2023/02/17 04:49:59;;;;;;;15.38;6.60;;;;;;;;;;4914344;28;20089;-71
2023/02/17 04:52:26;;;;;;;18.48;7.18;;;;;;;;;;4922804;28;20061;-67
2023/02/17 04:54:52;;;;;;;15.80;6.57;;;;;;;;;;4888015;28;20097;-69
2023/02/17 04:57:19;;;;;;;15.98;6.95;;;;;;;;;;4914170;28;20051;-68
2023/02/17 04:59:46;;;;;;;14.73;6.45;;;;;;;;;;4952889;28;20050;-67
2023/02/17 05:02:14;;;;;;;17.55;7.00;;;;;;;;;;4953811;28;20065;-70
2023/02/17 05:04:42;;;;;;;15.52;6.82;;;;;;;;;;4939075;28;20089;-68
2023/02/17 05:07:09;;;;;;;16.02;6.57;;;;;;;;;;4961594;28;20054;-66
2023/02/17 05:09:35;;;;;;;16.08;6.95;;;;;;;;;;4969665;28;20058;-70
2023/02/17 05:12:05;;;;;;;17.48;6.90;;;;;;;;;;4963018;28;20137;-71
2023/02/17 05:14:31;;;;;;;13.90;6.30;;;;;;;;;;4915716;28;20066;-71
2023/02/17 05:16:58;;;;;;;17.27;7.05;;;;;;;;;;4960035;28;20066;-68
2023/02/17 05:19:24;;;;;;;14.50;6.63;;;;;;;;;;4940635;28;20058;-72
2023/02/17 05:21:54;;;;;;;14.90;6.60;;;;;;;;;;4941350;28;20074;-70
2023/02/17 05:24:23;;;;;;;16.23;7.13;;;;;;;;;;4948161;28;20065;-66
2023/02/17 05:26:49;;;;;;;16.20;7.20;;;;;;;;;;4921774;28;20070;-67
2023/02/17 05:29:16;;;;;;;16.20;7.13;;;;;;;;;;4973141;28;20172;-74
2023/02/17 05:31:47;;;;;;;;;;;;;;;;;;4953611;28;20128;-69
2023/02/17 05:34:13;;;;;;;18.50;7.22;;;;;;;;;;4918789;28;19926;-72
2023/02/17 05:36:42;;;;;;;13.63;5.75;;;;;;;;;;4962410;28;20065;-75
2023/02/17 05:39:11;;;;;;;15.95;6.75;;;;;;;;;;4957770;28;20050;-70
2023/02/17 05:41:44;;;;;;;14.77;6.45;;;;;;;;;;4940468;28;20058;-70
2023/02/17 05:44:10;;;;;;;16.50;7.05;;;;;;;;;;4915049;28;20049;-76
2023/02/17 05:46:37;;;;;;;15.35;6.70;;;;;;;;;;4950381;28;20077;-73
2023/02/17 05:49:05;;;;;;;14.90;6.90;;;;;;;;;;4951627;28;20063;-67
2023/02/17 05:51:34;;;;;;;16.27;6.75;;;;;;;;;;4953724;28;20065;-71
2023/02/17 05:54:03;;;;;;;16.00;6.80;;;;;;;;;;4938426;28;20058;-71
2023/02/17 05:56:34;;;;;;;16.88;6.82;;;;;;;;;;4927790;28;20062;-69
2023/02/17 05:59:00;;;;;;;14.02;6.35;;;;;;;;;;4938091;28;20128;-72
2023/02/17 06:01:27;;;;;;;15.50;7.60;;;;;;;;;;4933200;28;20074;-71
2023/02/17 06:03:57;;;;;;;18.73;7.38;;;;;;;;;;4935591;28;20073;-71
2023/02/17 06:06:23;;;;;;;16.55;6.80;;;;;;;;;;4981718;28;20053;-70
2023/02/17 06:08:52;;;;;;;14.30;6.93;;;;;;;;;;4957292;28;20054;-68
2023/02/17 06:11:19;;;;;;;16.05;6.70;;;;;;;;;;4950241;28;20117;-69
2023/02/17 06:13:47;;;;;;;14.85;6.80;;;;;;;;;;4926975;28;20058;-68
2023/02/17 06:16:13;;;;;;;17.95;6.75;;;;;;;;;;4964428;28;20061;-68
2023/02/17 06:18:40;;;;;;;15.88;6.55;;;;;;;;;;4966291;28;20049;-68
2023/02/17 06:21:06;;;;;;;15.93;6.70;;;;;;;;;;4947802;28;20091;-71
2023/02/17 06:23:34;;;;;;;15.18;6.47;;;;;;;;;;4929728;28;20081;-75
2023/02/17 06:26:01;;;;;;;14.70;6.60;;;;;;;;;;4930170;28;20082;-66
2023/02/17 06:28:33;;;;;;;19.05;7.00;;;;;;;;;;4929209;28;20218;-69
2023/02/17 06:31:03;;;;;;;16.70;6.63;;;;;;;;;;4956535;28;20064;-74
2023/02/17 06:33:33;;;;;;;13.07;5.80;;;;;;;;;;4920917;28;20066;-72
2023/02/17 06:36:05;;;;;;;15.43;6.78;;;;;;;;;;4959652;28;20129;-72
2023/02/17 06:38:32;;;;;;;13.73;5.50;;;;;;;;;;4970806;28;20060;-67
2023/02/17 06:40:58;;;;;;;14.25;6.80;;;;;;;;;;4985165;28;20141;-70
2023/02/17 06:43:29;;;;;;;16.23;5.90;;;;;;;;;;4943598;28;20054;-67
2023/02/17 06:45:57;;;;;;;15.77;5.90;;;;;;;;;;4975401;28;20125;-70
2023/02/17 06:48:31;;;;;;;17.75;6.40;;;;;;;;;;4970732;28;20141;-70
2023/02/17 06:50:58;;;;;;;16.00;6.60;;;;;;;;;;4941714;28;20058;-72
2023/02/17 06:53:27;;;;;;;;;;;;;;;;;;4904608;28;20054;-69
2023/02/17 06:55:58;;;;;;;13.50;6.55;;;;;;;;;;4871849;28;19926;-67
2023/02/17 06:58:24;;;;;;;14.98;6.70;;;;;;;;;;4953782;28;20061;-70
2023/02/17 07:00:55;;;;;;;12.75;6.35;;;;;;;;;;4965027;28;20073;-67
2023/02/17 07:03:21;;;;;;;13.73;6.40;;;;;;;;;;4946103;28;20053;-76
2023/02/17 07:05:51;;;;;;;14.82;6.15;;;;;;;;;;4885995;28;20388;-67
2023/02/17 07:08:20;;;;;;;15.73;6.75;;;;;;;;;;4943391;28;20043;-69
2023/02/17 07:10:47;;;;;;;17.13;7.30;;;;;;;;;;4950287;28;20169;-68
2023/02/17 07:13:17;;;;;;;12.50;6.00;;;;;;;;;;4960027;28;20058;-70
2023/02/17 07:15:46;;;;;;;13.18;6.03;;;;;;;;;;4918514;28;20064;-71
2023/02/17 07:18:12;;;;;;;;;;;;;;;;;;4935440;28;20048;-70
2023/02/17 07:20:41;;;;;;;16.17;6.13;;;;;;;;;;4938811;28;19937;-72
2023/02/17 07:23:07;;;;;;;;;;;;;;;;;;4947423;28;20060;-70
2023/02/17 07:25:44;;;;;;;14.50;5.60;;;;;;;;;;4887067;28;19946;-70
2023/02/17 07:28:14;;;;;;;16.95;6.72;;;;;;;;;;4961808;28;20486;-70
2023/02/17 07:30:46;;;;;;;15.48;6.97;;;;;;;;;;4886929;28;20047;-68
2023/02/17 07:33:20;;;;;;;13.98;6.40;;;;;;;;;;4878128;29;20168;-74
2023/02/17 07:35:54;;;;;;;16.98;6.63;;;;;;;;;;4805440;29;20091;-68
2023/02/17 07:38:44;;;;;;;15.57;7.25;;;;;;;;;;4868774;29;20318;-71
2023/02/17 07:41:15;;;;;;;16.05;6.10;;;;;;;;;;4880450;29;20083;-69
2023/02/17 07:44:00;;;;;;;14.07;5.85;;;;;;;;;;4854772;29;20143;-68
2023/02/17 07:46:50;;;;;;;15.10;6.20;;;;;;;;;;4884946;28;20065;-72
2023/02/17 07:49:16;;;;;;;13.55;5.90;;;;;;;;;;4923955;28;20055;-72
2023/02/17 07:51:46;;;;;;;12.15;5.85;;;;;;;;;;4955751;28;20058;-66
2023/02/17 07:54:16;;;;;;;14.73;6.18;;;;;;;;;;4963021;28;20094;-68
2023/02/17 07:56:45;;;;;;;12.77;5.50;;;;;;;;;;4826440;29;20044;-74
2023/02/17 07:59:15;;;;;;;15.38;6.03;;;;;;;;;;4871283;29;20102;-66
2023/02/17 08:01:42;;;;;;;13.57;6.30;;;;;;;;;;4941142;28;20101;-72
2023/02/17 08:04:11;;;;;;;12.85;6.18;;;;;;;;;;4961132;28;20455;-67
2023/02/17 08:06:41;;;;;;;11.80;5.35;;;;;;;;;;4873188;28;20058;-71
2023/02/17 08:14:42;;;;;;;12.93;5.65;;;;;;;;;;4921329;28;20130;-68
2023/02/17 08:17:14;;;;;;;14.38;5.55;;;;;;;;;;4882302;29;20060;-68
2023/02/17 08:19:43;;;;;;;14.73;5.40;;;;;;;;;;4906872;28;20245;-69
2023/02/17 08:22:10;;;;;;;14.90;6.30;;;;;;;;;;4891375;28;20056;-67
2023/02/17 08:24:40;;;;;;;12.73;5.50;;;;;;;;;;4902836;28;20096;-68
2023/02/17 08:27:13;;;;;;;13.25;5.82;;;;;;;;;;4909119;28;20157;-74
2023/02/17 08:29:41;;;;;;;11.43;5.13;;;;;;;;;;4957714;28;20058;-74
2023/02/17 08:32:16;;;;;;;12.98;5.47;;;;;;;;;;4952337;28;20146;-72
2023/02/17 08:34:42;;;;;;;13.40;5.50;;;;;;;;;;4908355;28;20062;-71
2023/02/17 08:37:11;;;;;;;12.52;5.50;;;;;;;;;;4949374;28;20059;-68
2023/02/17 08:39:40;;;;;;;11.25;5.30;;;;;;;;;;4906743;28;20146;-71
2023/02/17 08:42:11;;;;;;;11.45;4.85;;;;;;;;;;4923510;28;20057;-70
2023/02/17 08:44:38;;;;;;;10.65;4.95;;;;;;;;;;4906892;28;20055;-68
2023/02/17 08:47:05;;;;;;;12.00;5.30;;;;;;;;;;4880435;29;20090;-71
2023/02/17 08:49:34;;;;;;;13.20;5.25;;;;;;;;;;4900886;29;20170;-68
2023/02/17 08:52:01;;;;;;;11.10;4.90;;;;;;;;;;4867649;29;20179;-66
2023/02/17 08:54:31;;;;;;;11.20;4.88;;;;;;;;;;4868571;29;20514;-73
2023/02/17 08:56:59;;;;;;;12.55;5.38;;;;;;;;;;4874637;29;20059;-68
2023/02/17 08:59:37;;;;;;;10.57;4.80;;;;;;;;;;4910872;28;20046;-64
2023/02/17 09:02:13;;;;;;;9.30;4.93;;;;;;;;;;4931292;28;20137;-70
2023/02/17 09:04:43;;;;;;;11.20;5.03;;;;;;;;;;4892220;28;20046;-68
2023/02/17 09:07:13;;;;;;;12.80;4.93;;;;;;;;;;4871803;29;20081;-72
2023/02/17 09:09:48;;;;;;;9.90;4.53;;;;;;;;;;4923531;28;20050;-69
2023/02/17 09:12:21;;;;;;;10.52;4.90;;;;;;;;;;4909782;28;20179;-70
2023/02/17 09:14:52;;;;;;;12.70;4.85;;;;;;;;;;4910814;28;20067;-71
2023/02/17 09:17:24;;;;;;;9.50;4.03;;;;;;;;;;4916057;28;20168;-67
2023/02/17 09:19:50;;;;;;;14.57;5.15;;;;;;;;;;4907192;28;20161;-69
2023/02/17 09:22:19;;;;;;;9.32;4.78;;;;;;;;;;4914683;28;20117;-74
2023/02/17 09:24:55;;;;;;;9.50;4.30;;;;;;;;;;4904350;28;20062;-70
2023/02/17 09:27:46;;;;;;;9.70;4.43;;;;;;;;;;4903627;28;20058;-72
2023/02/17 09:30:15;;;;;;;10.27;3.90;;;;;;;;;;4935831;28;20051;-75
2023/02/17 09:32:44;;;;;;;9.65;4.10;;;;;;;;;;4915634;28;20255;-67
2023/02/17 09:35:11;;;;;;;9.45;3.90;;;;;;;;;;4938480;28;20041;-69
2023/02/17 09:37:43;;;;;;;12.70;4.40;;;;;;;;;;4907153;28;20055;-71
2023/02/17 09:40:18;;;;;;;9.55;4.15;;;;;;;;;;4900409;28;20057;-67
2023/02/17 09:42:49;;;;;;;8.75;4.35;;;;;;;;;;4948697;28;20054;-71
2023/02/17 09:45:31;;;;;;;10.68;3.95;;;;;;;;;;4926430;28;20066;-75
2023/02/17 09:48:03;;;;;;;9.27;3.90;;;;;;;;;;4838551;29;20056;-74
2023/02/17 09:50:34;;;;;;;7.50;3.50;;;;;;;;;;4851777;29;20069;-71
2023/02/17 09:53:05;;;;;;;8.20;3.47;;;;;;;;;;4829236;29;20061;-69
2023/02/17 09:55:41;;;;;;;11.65;4.15;;;;;;;;;;4851458;29;20075;-69
2023/02/17 09:58:17;;;;;;;8.25;3.53;;;;;;;;;;4833495;29;20055;-72
2023/02/17 10:00:50;;;;;;;9.77;3.90;;;;;;;;;;4860670;29;20128;-72
2023/02/17 10:03:18;;;;;;;7.60;3.10;;;;;;;;;;4816730;29;20061;-74
2023/02/17 10:05:57;;;;;;;8.27;4.10;;;;;;;;;;4771717;29;20090;-74
2023/02/17 10:11:48;;;;;;;7.28;3.60;;;;;;;;;;4787215;29;20173;-73
2023/02/17 10:14:19;;;;;;;9.88;3.95;;;;;;;;;;4864762;29;20065;-70
2023/02/17 10:16:53;;;;;;;9.35;4.15;;;;;;;;;;4815124;29;20120;-70
2023/02/17 10:19:27;;;;;;;9.63;3.80;;;;;;;;;;4829633;29;20055;-66
2023/02/17 10:21:58;;;;;;;7.80;3.50;;;;;;;;;;4927638;28;20100;-70
2023/02/17 10:24:37;;;;;;;7.20;3.33;;;;;;;;;;4954162;28;20173;-67
2023/02/17 10:27:21;;;;;;;8.50;3.55;;;;;;;;;;4901599;28;20105;-68
2023/02/17 10:29:52;;;;;;;7.65;3.38;;;;;;;;;;4903604;28;20054;-70
2023/02/17 10:32:23;;;;;;;10.05;3.42;;;;;;;;;;4941831;28;20050;-72
2023/02/17 10:35:10;;;;;;;7.45;3.47;;;;;;;;;;4947513;28;20294;-72
2023/02/17 10:37:46;;;;;;;7.15;3.28;;;;;;;;;;4893782;28;20047;-65
2023/02/17 10:40:16;;;;;;;9.18;3.42;;;;;;;;;;4929070;28;20064;-68
2023/02/17 10:42:45;;;;;;;7.65;3.38;;;;;;;;;;4895559;29;20132;-70
2023/02/17 10:45:24;;;;;;;9.40;3.35;;;;;;;;;;4906512;28;20058;-73
2023/02/17 10:48:06;;;;;;;;;;;;;;;;;;;;;
2023/02/17 10:50:41;;;;;;;8.87;3.47;;;;;;;;;;4872089;29;20079;-67
2023/02/17 10:53:21;;;;;;;6.90;3.30;;;;;;;;;;4856006;29;20048;-71
2023/02/17 10:55:53;;;;;;;12.15;4.25;;;;;;;;;;4911871;28;20165;-75
2023/02/17 10:58:36;;;;;;;8.00;3.67;;;;;;;;;;4863745;29;20059;-67
2023/02/17 11:01:06;;;;;;;7.68;3.42;;;;;;;;;;4914778;28;20193;-65
2023/02/17 11:03:39;;;;;;;6.97;3.35;;;;;;;;;;4953559;28;20204;-68
2023/02/17 11:06:18;;;;;;;9.15;3.40;;;;;;;;;;4917831;28;20058;-73
2023/02/17 11:08:49;;;;;;;11.45;3.10;;;;;;;;;;4941689;28;20066;-65
2023/02/17 11:11:19;;;;;;;7.15;3.25;;;;;;;;;;4904659;28;20066;-72
2023/02/17 11:13:58;;;;;;;9.95;3.40;;;;;;;;;;4896550;28;20051;-70
2023/02/17 11:16:45;;;;;;;8.32;3.67;;;;;;;;;;4871557;28;20052;-69
2023/02/17 11:19:23;;;;;;;7.65;3.22;;;;;;;;;;4874753;29;20059;-65
2023/02/17 11:21:53;;;;;;;7.35;3.35;;;;;;;;;;4853536;29;20139;-70
2023/02/17 11:24:25;;;;;;;8.48;3.20;;;;;;;;;;4883311;28;20099;-73
2023/02/17 11:26:57;;;;;;;8.30;3.60;;;;;;;;;;4905474;28;20065;-67
2023/02/17 11:29:31;;;;;;;8.32;3.58;;;;;;;;;;4913494;29;20051;-68
2023/02/17 11:32:07;;;;;;;8.75;3.70;;;;;;;;;;4948117;28;20111;-70
2023/02/17 11:34:43;;;;;;;8.10;3.10;;;;;;;;;;4962645;28;20113;-70
2023/02/17 11:37:22;;;;;;;9.07;3.10;;;;;;;;;;4895793;28;20050;-71
2023/02/17 11:39:56;;;;;;;8.75;3.20;;;;;;;;;;4938892;28;20134;-66
2023/02/17 11:42:30;;;;;;;8.23;3.72;;;;;;;;;;4926999;28;20046;-74
2023/02/17 11:45:16;;;;;;;10.55;4.28;;;;;;;;;;4936252;28;20058;-75
2023/02/17 11:53:20;;;;;;;12.63;4.50;;;;;;;;;;5038477;27;20507;-69
2023/02/17 11:56:22;;;;;;;10.05;3.78;;;;;;;;;;4964486;28;20258;-70
2023/02/17 11:59:01;;;;;;;9.88;4.13;;;;;;;;;;4988700;28;20049;-72
2023/02/17 12:01:53;;;;;;;9.05;3.80;;;;;;;;;;5005723;28;20060;-68
2023/02/17 12:04:32;;;;;;;11.43;4.40;;;;;;;;;;5030316;28;20183;-73
2023/02/17 12:07:21;;;;;;;11.40;4.28;;;;;;;;;;4989352;28;20200;-67
2023/02/17 12:10:13;;;;;;;9.35;4.10;;;;;;;;;;4972552;28;20055;-71
2023/02/17 12:15:23;;;;;;;11.07;4.15;;;;;;;;;;4930903;28;20168;-68
2023/02/17 12:17:55;;;;;;;13.75;4.65;;;;;;;;;;4957747;28;20072;-70
2023/02/17 12:20:36;;;;;;;10.65;3.80;;;;;;;;;;5000670;28;20145;-73
2023/02/17 12:23:22;;;;;;;;;;;;;;;;;;;;;
2023/02/17 12:25:53;;;;;;;11.10;4.28;;;;;;;;;;4996191;28;20144;-72
2023/02/17 12:28:35;;;;;;;11.98;4.88;;;;;;;;;;4994979;28;20052;-73
2023/02/17 12:31:18;;;;;;;10.75;4.30;;;;;;;;;;5008099;28;20106;-69
2023/02/17 12:33:56;;;;;;;11.68;4.38;;;;;;;;;;5020125;28;20060;-68
2023/02/17 12:36:27;;;;;;;10.82;4.28;;;;;;;;;;5020521;28;20041;-71
2023/02/17 12:38:57;;;;;;;11.32;4.20;;;;;;;;;;4980469;28;20078;-73
2023/02/17 12:41:27;;;;;;;10.13;4.07;;;;;;;;;;4952665;28;20139;-66
2023/02/17 12:43:58;;;;;;;10.57;4.70;;;;;;;;;;4963368;28;20057;-75
2023/02/17 12:46:32;;;;;;;11.10;4.15;;;;;;;;;;4956435;28;20116;-69
2023/02/17 12:49:04;;;;;;;11.38;3.92;;;;;;;;;;4890596;28;20488;-72
2023/02/17 12:51:35;;;;;;;10.55;4.70;;;;;;;;;;4968100;28;20137;-68
2023/02/17 12:54:12;;;;;;;12.70;4.40;;;;;;;;;;4951688;28;20061;-70
2023/02/17 12:56:53;;;;;;;12.43;4.45;;;;;;;;;;4918555;28;20051;-71
2023/02/17 12:59:26;;;;;;;8.25;3.97;;;;;;;;;;4916474;28;20046;-70
2023/02/17 13:02:02;;;;;;;11.20;3.67;;;;;;;;;;4965092;28;20052;-71
2023/02/17 13:04:34;;;;;;;13.77;4.38;;;;;;;;;;4927534;28;20111;-72
2023/02/17 13:07:12;;;;;;;10.70;3.88;;;;;;;;;;4900951;28;20066;-64
2023/02/17 13:09:42;;;;;;;;;;;;;;;;;;4935691;28;20062;-67
2023/02/17 13:12:37;;;;;;;8.60;3.38;;;;;;;;;;4917621;28;19926;-70
2023/02/17 13:15:16;;;;;;;;;;;;;;;;;;;;;
2023/02/17 13:17:51;;;;;;;;;;;;;;;;;;4877865;28;20167;-75
2023/02/17 13:20:26;;;;;;;9.98;3.20;;;;;;;;;;4858540;29;19960;-68
2023/02/17 13:23:03;;;;;;;8.07;3.45;;;;;;;;;;4909271;29;20139;-68
2023/02/17 13:25:37;;;;;;;10.15;3.33;;;;;;;;;;4899065;29;20439;-68
2023/02/17 13:28:20;;;;;;;7.13;2.95;;;;;;;;;;4874562;28;20055;-66
2023/02/17 13:30:57;;;;;;;9.65;3.50;;;;;;;;;;4940073;28;20155;-68
2023/02/17 13:33:31;;;;;;;9.15;3.05;;;;;;;;;;4951986;28;20199;-69
2023/02/17 13:36:11;;;;;;;8.88;3.00;;;;;;;;;;4936845;28;20046;-69
2023/02/17 13:38:37;;;;;;;12.20;3.33;;;;;;;;;;4966487;28;20051;-66
2023/02/17 13:41:09;;;;;;;11.13;2.90;;;;;;;;;;4940844;28;20053;-68
2023/02/17 13:43:43;;;;;;;6.95;2.55;;;;;;;;;;4946080;28;20068;-64
2023/02/17 13:46:25;;;;;;;;;;;;;;;;;;;;;
2023/02/17 13:49:01;;;;;;;8.57;3.03;;;;;;;;;;4941407;28;20050;-67
2023/02/17 13:51:34;;;;;;;8.82;2.20;;;;;;;;;;4966222;28;20256;-69
2023/02/17 13:54:09;;;;;;;10.50;3.47;;;;;;;;;;4972810;28;20053;-67
2023/02/17 13:56:39;;;;;;;9.63;2.83;;;;;;;;;;4974456;28;20245;-65
2023/02/17 13:59:16;;;;;;;7.88;2.45;;;;;;;;;;5020043;28;20056;-65
2023/02/17 14:01:53;;;;;;;6.38;2.50;;;;;;;;;;5033583;28;20048;-75
2023/02/17 14:04:31;;;;;;;8.57;2.40;;;;;;;;;;5030125;28;20039;-68
2023/02/17 14:07:16;;;;;;;8.70;2.50;;;;;;;;;;4995236;28;20103;-67
2023/02/17 14:09:55;;;;;;;9.77;2.50;;;;;;;;;;5009937;28;20102;-69
2023/02/17 14:12:25;;;;;;;10.52;2.38;;;;;;;;;;4981644;28;20053;-65
2023/02/17 14:14:51;;;;;;;13.23;2.85;;;;;;;;;;4991343;28;20058;-69
2023/02/17 14:17:27;;;;;;;7.38;2.40;;;;;;;;;;4962118;28;20065;-69
2023/02/17 14:20:01;;;;;;;10.38;2.78;;;;;;;;;;5026486;28;20053;-64
2023/02/17 14:22:44;;;;;;;9.70;2.53;;;;;;;;;;4999000;28;20050;-67
2023/02/17 14:25:30;;;;;;;10.02;3.33;;;;;;;;;;4985412;28;20060;-67
2023/02/17 14:28:03;;;;;;;12.35;2.90;;;;;;;;;;4971800;28;20052;-68
2023/02/17 14:30:33;;;;;;;12.13;2.58;;;;;;;;;;5034080;28;20049;-70
2023/02/17 14:33:05;;;;;;;7.28;2.35;;;;;;;;;;5021833;28;20049;-69
2023/02/17 14:35:32;;;;;;;10.35;3.38;;;;;;;;;;5006141;28;20116;-73
2023/02/17 14:38:20;;;;;;;11.77;2.75;;;;;;;;;;5004168;28;20051;-69
2023/02/17 14:40:54;;;;;;;6.93;2.60;;;;;;;;;;5015376;28;20057;-71
2023/02/17 14:43:26;;;;;;;7.38;2.67;;;;;;;;;;4987770;28;20049;-69
2023/02/17 14:45:59;;;;;;;10.73;2.85;;;;;;;;;;5000778;28;20057;-70
2023/02/17 14:48:26;;;;;;;10.02;2.50;;;;;;;;;;5010079;28;20071;-68
2023/02/17 14:50:58;;;;;;;6.93;2.63;;;;;;;;;;4936767;28;20074;-72
2023/02/17 14:53:35;;;;;;;10.70;2.45;;;;;;;;;;4971104;28;20048;-68
2023/02/17 14:56:21;;;;;;;6.68;2.47;;;;;;;;;;5026800;28;20053;-69
2023/02/17 14:58:55;;;;;;;10.88;3.13;;;;;;;;;;4985754;28;20048;-70
2023/02/17 15:01:28;;;;;;;6.67;2.60;;;;;;;;;;5003517;28;20072;-74
2023/02/17 15:03:59;;;;;;;11.98;3.03;;;;;;;;;;4982988;28;20045;-67
2023/02/17 15:06:26;;;;;;;;;;;;;;;;;;5009045;28;20140;-70
2023/02/17 15:08:53;;;;;;;9.32;2.45;;;;;;;;;;5001361;28;19925;-67
2023/02/17 15:11:28;;;;;;;7.72;2.35;;;;;;;;;;5007075;28;20068;-70
2023/02/17 15:14:01;;;;;;;10.02;2.72;;;;;;;;;;4980997;28;20138;-63
2023/02/17 15:16:35;;;;;;;11.70;2.88;;;;;;;;;;4983490;28;20067;-69
2023/02/17 15:19:02;;;;;;;8.27;2.60;;;;;;;;;;4984268;28;20040;-70
2023/02/17 15:21:35;;;;;;;8.32;3.00;;;;;;;;;;4971236;28;20044;-67